createdAt,value
2023-05-05T00:01:19.381Z,101896.23
2023-05-05T00:03:48.931Z,101894.45
2023-05-05T00:06:18.545Z,101894.70
2023-05-05T00:08:47.913Z,101896.84
2023-05-05T00:11:17.340Z,101893.09
2023-05-05T00:13:47.357Z,101893.55
2023-05-05T00:16:18.268Z,101896.61
2023-05-05T00:18:48.193Z,101897.97
2023-05-05T00:21:17.758Z,101903.13
2023-05-05T00:23:47.126Z,101896.06
2023-05-05T00:26:16.514Z,101897.57
2023-05-05T00:28:49.686Z,101897.59
2023-05-05T00:31:19.383Z,101897.84
2023-05-05T00:33:48.687Z,101897.54
2023-05-05T00:36:23.524Z,101898.97
2023-05-05T00:38:52.960Z,101901.00
2023-05-05T00:41:22.390Z,101903.55
2023-05-05T00:43:52.720Z,101902.88
2023-05-05T00:46:28.306Z,101901.02
2023-05-05T00:48:57.978Z,101901.67
2023-05-05T00:51:28.694Z,101904.35
2023-05-05T00:53:58.509Z,101902.98
2023-05-05T00:56:28.416Z,101901.73
2023-05-05T00:58:59.281Z,101899.79
2023-05-05T01:01:28.924Z,101900.52
2023-05-05T01:03:58.993Z,101894.96
2023-05-05T01:07:12.943Z,101889.97
2023-05-05T01:10:22.385Z,101886.63
2023-05-05T01:13:17.070Z,101884.61
2023-05-05T01:16:09.560Z,101887.39
2023-05-05T01:19:01.060Z,101885.89
2023-05-05T01:21:56.345Z,101884.48
2023-05-05T01:25:04.417Z,101888.16
2023-05-05T01:28:31.436Z,101886.50
2023-05-05T01:31:51.953Z,101881.63
2023-05-05T01:34:28.504Z,101877.39
2023-05-05T01:37:19.298Z,101876.58
2023-05-05T01:39:57.962Z,101878.69
2023-05-05T01:42:30.086Z,101880.17
2023-05-05T01:45:08.743Z,101881.65
2023-05-05T01:47:40.524Z,101884.13
2023-05-05T01:50:12.478Z,101884.71
2023-05-05T01:52:43.697Z,101885.98
2023-05-05T01:55:18.233Z,101887.11
2023-05-05T01:57:49.446Z,101884.09
2023-05-05T02:00:20.430Z,101886.70
2023-05-05T02:02:50.887Z,101881.86
2023-05-05T02:05:24.660Z,101883.59
2023-05-05T02:07:59.176Z,101885.13
2023-05-05T02:10:30.081Z,101889.86
2023-05-05T02:13:05.006Z,101893.17
2023-05-05T02:15:38.688Z,101895.36
2023-05-05T02:18:08.737Z,101893.47
2023-05-05T02:20:41.876Z,101898.17
2023-05-05T02:23:12.660Z,101898.83
2023-05-05T02:25:53.676Z,101902.77
2023-05-05T02:28:42.559Z,101906.20
2023-05-05T02:31:14.150Z,101904.11
2023-05-05T02:33:47.745Z,101902.29
2023-05-05T02:36:28.037Z,101901.20
2023-05-05T02:39:07.674Z,101900.55
2023-05-05T02:41:43.578Z,101901.31
2023-05-05T02:44:22.524Z,101904.81
2023-05-05T02:46:53.747Z,101906.32
2023-05-05T02:49:23.813Z,101912.23
2023-05-05T02:51:55.523Z,101909.02
2023-05-05T02:54:29.130Z,101902.14
2023-05-05T02:57:02.068Z,101900.19
2023-05-05T02:59:50.414Z,101894.70
2023-05-05T03:03:06.902Z,101896.66
2023-05-05T03:06:01.172Z,101903.19
2023-05-05T03:08:44.161Z,101902.14
2023-05-05T03:11:26.547Z,101903.19
2023-05-05T03:14:09.065Z,101904.44
2023-05-05T03:16:42.695Z,101902.13
2023-05-05T03:19:21.490Z,101902.98
2023-05-05T03:21:54.872Z,101904.89
2023-05-05T03:24:27.081Z,101901.16
2023-05-05T03:27:03.320Z,101901.39
2023-05-05T03:29:38.342Z,101897.67
2023-05-05T03:32:10.870Z,101901.23
2023-05-05T03:34:42.576Z,101904.14
2023-05-05T03:37:12.600Z,101899.81
2023-05-05T03:39:52.862Z,101891.91
2023-05-05T03:42:25.798Z,101889.45
2023-05-05T03:44:58.640Z,101891.05
2023-05-05T03:47:28.210Z,101885.39
2023-05-05T03:49:57.699Z,101882.08
2023-05-05T03:52:28.079Z,101885.30
2023-05-05T03:54:58.040Z,101884.67
2023-05-05T03:57:27.939Z,101888.30
2023-05-05T03:59:59.064Z,101889.50
2023-05-05T04:02:29.244Z,101889.62
2023-05-05T04:04:58.782Z,101889.14
2023-05-05T04:07:28.737Z,101888.81
2023-05-05T04:09:58.127Z,101888.59
2023-05-05T04:12:29.157Z,101886.94
2023-05-05T04:15:01.465Z,101890.41
2023-05-05T04:17:31.415Z,101893.27
2023-05-05T04:20:01.151Z,101895.89
2023-05-05T04:22:35.155Z,101890.52
2023-05-05T04:25:06.817Z,101893.66
2023-05-05T04:27:36.934Z,101895.77
2023-05-05T04:30:09.693Z,101898.27
2023-05-05T04:32:44.689Z,101897.09
2023-05-05T04:35:16.346Z,101897.73
2023-05-05T04:37:46.227Z,101898.48
2023-05-05T04:40:19.389Z,101900.40
2023-05-05T04:42:49.814Z,101899.58
2023-05-05T04:45:19.515Z,101904.69
2023-05-05T04:47:49.784Z,101905.90
2023-05-05T04:50:21.223Z,101905.24
2023-05-05T04:52:55.111Z,101902.65
2023-05-05T04:55:24.947Z,101902.35
2023-05-05T04:57:55.584Z,101906.24
2023-05-05T05:00:26.061Z,101908.07
2023-05-05T05:02:57.262Z,101911.81
2023-05-05T05:05:26.905Z,101911.55
2023-05-05T05:07:56.364Z,101909.84
2023-05-05T05:10:26.435Z,101910.22
2023-05-05T05:12:57.031Z,101912.70
2023-05-05T05:15:27.097Z,101915.31
2023-05-05T05:17:56.712Z,101921.98
2023-05-05T05:20:27.065Z,101921.24
2023-05-05T05:22:57.567Z,101922.46
2023-05-05T05:25:27.529Z,101932.40
2023-05-05T05:28:08.857Z,101931.95
2023-05-05T05:30:41.314Z,101931.77
2023-05-05T05:33:11.674Z,101929.05
2023-05-05T05:35:42.045Z,101925.32
2023-05-05T05:38:12.367Z,101930.46
2023-05-05T05:40:42.499Z,101927.09
2023-05-05T05:43:12.394Z,101924.14
2023-05-05T05:45:42.052Z,101926.82
2023-05-05T05:48:12.526Z,101922.88
2023-05-05T05:50:42.307Z,101924.85
2023-05-05T05:53:11.772Z,101924.78
2023-05-05T05:55:41.612Z,101925.00
2023-05-05T05:58:11.197Z,101928.66
2023-05-05T06:00:40.675Z,101930.33
2023-05-05T06:03:14.618Z,101929.59
2023-05-05T06:05:46.476Z,101924.45
2023-05-05T06:08:16.270Z,101918.33
2023-05-05T06:10:48.666Z,101922.80
2023-05-05T06:13:29.866Z,101923.30
2023-05-05T06:16:08.020Z,101924.94
2023-05-05T06:20:00.038Z,101920.34
2023-05-05T06:22:30.411Z,101918.00
2023-05-05T06:25:00.761Z,101917.21
2023-05-05T06:27:30.691Z,101917.27
2023-05-05T06:30:00.644Z,101920.70
2023-05-05T06:32:31.485Z,101918.73
2023-05-05T06:35:01.385Z,101922.04
2023-05-05T06:37:30.896Z,101922.11
2023-05-05T06:40:00.356Z,101921.55
2023-05-05T06:42:32.340Z,101919.59
2023-05-05T06:45:05.296Z,101916.50
2023-05-05T06:47:35.004Z,101914.72
2023-05-05T06:50:04.815Z,101916.52
2023-05-05T06:52:34.404Z,101914.85
2023-05-05T06:55:04.793Z,101914.68
2023-05-05T06:57:34.692Z,101914.55
2023-05-05T07:00:09.381Z,101914.36
2023-05-05T07:02:40.662Z,101914.11
2023-05-05T07:05:10.293Z,101916.57
2023-05-05T07:07:53.802Z,101919.42
2023-05-05T07:10:28.314Z,101915.88
2023-05-05T07:12:59.760Z,101920.30
2023-05-05T07:15:30.531Z,101919.94
2023-05-05T07:18:00.244Z,101922.60
2023-05-05T07:20:34.115Z,101920.44
2023-05-05T07:23:27.306Z,101921.35
2023-05-05T07:25:59.949Z,101921.87
2023-05-05T07:28:29.435Z,101923.80
2023-05-05T07:30:58.781Z,101920.55
2023-05-05T07:33:28.465Z,101924.30
2023-05-05T07:35:57.805Z,101923.65
2023-05-05T07:38:29.172Z,101923.70
2023-05-05T07:40:59.108Z,101924.56
2023-05-05T07:43:28.614Z,101918.39
2023-05-05T07:45:59.601Z,101922.59
2023-05-05T07:48:31.808Z,101923.30
2023-05-05T07:51:01.950Z,101919.86
2023-05-05T07:53:33.083Z,101925.04
2023-05-05T07:56:02.964Z,101919.74
2023-05-05T07:58:33.639Z,101922.36
2023-05-05T08:01:04.019Z,101923.45
2023-05-05T08:03:38.757Z,101920.29
2023-05-05T08:06:10.258Z,101916.89
2023-05-05T08:08:39.877Z,101923.80
2023-05-05T08:11:09.802Z,101930.14
2023-05-05T08:16:30.363Z,101926.48
2023-05-05T08:19:05.063Z,101921.31
2023-05-05T08:21:39.396Z,101922.86
2023-05-05T08:24:10.419Z,101925.85
2023-05-05T08:26:40.352Z,101915.33
2023-05-05T08:29:11.884Z,101912.98
2023-05-05T08:31:42.690Z,101913.11
2023-05-05T08:34:13.694Z,101910.38
2023-05-05T08:36:43.897Z,101910.52
2023-05-05T08:39:15.285Z,101911.31
2023-05-05T08:41:44.790Z,101909.77
2023-05-05T08:44:24.062Z,101912.61
2023-05-05T08:46:56.006Z,101919.89
2023-05-05T08:49:26.422Z,101917.62
2023-05-05T08:52:03.332Z,101921.51
2023-05-05T08:54:51.964Z,101916.72
2023-05-05T08:57:32.735Z,101918.00
2023-05-05T09:00:04.413Z,101918.85
2023-05-05T09:02:35.454Z,101922.81
2023-05-05T09:05:07.562Z,101917.81
2023-05-05T09:08:02.676Z,101915.20
2023-05-05T09:10:33.848Z,101913.46
2023-05-05T09:13:07.324Z,101915.66
2023-05-05T09:15:42.288Z,101913.41
2023-05-05T09:18:13.335Z,101911.41
2023-05-05T09:20:43.040Z,101910.46
2023-05-05T09:23:16.418Z,101915.11
2023-05-05T09:26:09.315Z,101914.58
2023-05-05T09:28:39.358Z,101918.20
2023-05-05T09:31:16.660Z,101918.02
2023-05-05T09:33:46.726Z,101911.42
2023-05-05T09:36:17.630Z,101912.70
2023-05-05T09:39:07.669Z,101913.79
2023-05-05T09:41:42.744Z,101913.33
2023-05-05T09:44:13.277Z,101911.85
2023-05-05T09:46:55.386Z,101910.78
2023-05-05T09:49:27.510Z,101910.74
2023-05-05T09:51:59.376Z,101908.90
2023-05-05T09:54:30.910Z,101907.85
2023-05-05T09:57:00.305Z,101903.69
2023-05-05T09:59:31.271Z,101905.44
2023-05-05T10:02:15.468Z,101901.13
2023-05-05T10:04:45.043Z,101896.55
2023-05-05T10:07:25.112Z,101894.91
2023-05-05T10:09:55.237Z,101891.80
2023-05-05T10:12:26.741Z,101890.86
2023-05-05T10:14:57.194Z,101889.36
2023-05-05T10:17:31.120Z,101888.77
2023-05-05T10:20:04.205Z,101887.07
2023-05-05T10:22:35.425Z,101887.98
2023-05-05T10:25:13.741Z,101883.70
2023-05-05T10:27:51.470Z,101880.13
2023-05-05T10:30:30.814Z,101879.59
2023-05-05T10:33:31.471Z,101876.80
2023-05-05T10:36:07.292Z,101877.48
2023-05-05T10:38:42.676Z,101874.19
2023-05-05T10:41:14.759Z,101876.58
2023-05-05T10:43:45.115Z,101871.64
2023-05-05T10:46:15.841Z,101866.90
2023-05-05T10:49:26.008Z,101863.45
2023-05-05T10:52:09.861Z,101861.77
2023-05-05T10:55:03.809Z,101854.11
2023-05-05T10:57:40.186Z,101845.84
2023-05-05T11:00:11.011Z,101843.95
2023-05-05T11:02:42.157Z,101842.69
2023-05-05T11:05:23.762Z,101840.27
2023-05-05T11:07:53.370Z,101840.92
2023-05-05T11:10:23.883Z,101835.02
2023-05-05T11:12:59.490Z,101831.54
2023-05-05T11:15:30.464Z,101828.05
2023-05-05T11:18:07.507Z,101825.08
2023-05-05T11:20:39.800Z,101817.69
2023-05-05T11:23:09.385Z,101819.52
2023-05-05T11:25:43.554Z,101816.99
2023-05-05T11:28:33.634Z,101815.73
2023-05-05T11:31:03.676Z,101810.54
2023-05-05T11:33:38.494Z,101805.59
2023-05-05T11:36:16.688Z,101800.16
2023-05-05T11:39:21.350Z,101790.05
2023-05-05T11:42:28.757Z,101793.49
2023-05-05T11:45:22.031Z,101792.30
2023-05-05T11:47:51.442Z,101790.54
2023-05-05T11:50:23.353Z,101786.85
2023-05-05T11:52:52.929Z,101784.77
2023-05-05T11:55:22.806Z,101779.94
2023-05-05T11:57:52.524Z,101768.42
2023-05-05T12:00:37.793Z,101765.34
2023-05-05T12:03:14.747Z,101754.58
2023-05-05T12:05:44.215Z,101753.78
2023-05-05T12:08:15.000Z,101750.38
2023-05-05T12:10:44.651Z,101745.08
2023-05-05T12:13:20.112Z,101744.86
2023-05-05T12:15:49.806Z,101741.14
2023-05-05T12:18:20.922Z,101738.38
2023-05-05T12:20:51.369Z,101735.73
2023-05-05T12:23:23.539Z,101729.27
2023-05-05T12:25:53.609Z,101722.11
2023-05-05T12:28:23.144Z,101721.42
2023-05-05T12:30:59.687Z,101722.38
2023-05-05T12:33:30.576Z,101713.30
2023-05-05T12:35:59.944Z,101710.46
2023-05-05T12:38:32.818Z,101706.61
2023-05-05T12:41:04.573Z,101703.02
2023-05-05T12:43:35.539Z,101699.34
2023-05-05T12:46:07.770Z,101697.49
2023-05-05T12:48:39.158Z,101695.98
2023-05-05T12:51:18.237Z,101686.41
2023-05-05T12:53:50.435Z,101683.13
2023-05-05T12:56:38.887Z,101681.92
2023-05-05T12:59:30.920Z,101678.98
2023-05-05T13:02:01.832Z,101675.81
2023-05-05T13:04:31.774Z,101672.83
2023-05-05T13:07:15.583Z,101669.75
2023-05-05T13:09:45.431Z,101663.38
2023-05-05T13:12:19.499Z,101659.81
2023-05-05T13:14:50.972Z,101658.10
2023-05-05T13:17:20.424Z,101655.92
2023-05-05T13:19:49.809Z,101656.11
2023-05-05T13:22:19.268Z,101650.38
2023-05-05T13:25:07.372Z,101647.18
2023-05-05T13:27:38.057Z,101647.23
2023-05-05T13:30:10.537Z,101644.67
2023-05-05T13:32:39.970Z,101642.88
2023-05-05T13:35:11.592Z,101641.99
2023-05-05T13:37:42.775Z,101639.18
2023-05-05T13:40:13.494Z,101637.12
2023-05-05T13:42:43.502Z,101632.81
2023-05-05T13:45:14.410Z,101632.88
2023-05-05T13:47:45.947Z,101624.12
2023-05-05T13:50:15.335Z,101622.73
2023-05-05T13:52:45.339Z,101615.42
2023-05-05T13:55:15.108Z,101612.06
2023-05-05T13:57:48.223Z,101614.61
2023-05-05T14:00:18.568Z,101610.30
2023-05-05T14:02:48.362Z,101608.11
2023-05-05T14:05:18.045Z,101604.20
2023-05-05T14:07:47.912Z,101605.98
2023-05-05T14:10:17.515Z,101603.31
2023-05-05T14:12:47.861Z,101599.91
2023-05-05T14:15:17.357Z,101598.48
2023-05-05T14:17:46.967Z,101597.75
2023-05-05T14:20:16.378Z,101597.50
2023-05-05T14:22:48.224Z,101592.70
2023-05-05T14:25:18.650Z,101590.64
2023-05-05T14:27:48.969Z,101589.05
2023-05-05T14:30:18.402Z,101586.02
2023-05-05T14:32:48.268Z,101583.75
2023-05-05T14:35:18.253Z,101581.42
2023-05-05T14:37:47.714Z,101581.48
2023-05-05T14:40:17.174Z,101581.93
2023-05-05T14:42:46.674Z,101583.16
2023-05-05T14:45:17.455Z,101585.20
2023-05-05T14:47:47.020Z,101582.70
2023-05-05T14:50:17.924Z,101584.77
2023-05-05T14:52:47.676Z,101579.41
2023-05-05T14:55:17.307Z,101579.59
2023-05-05T14:57:47.956Z,101573.05
2023-05-05T15:00:17.798Z,101573.59
2023-05-05T15:02:48.512Z,101571.83
2023-05-05T15:05:18.599Z,101570.95
2023-05-05T15:07:48.067Z,101567.50
2023-05-05T15:10:18.638Z,101569.54
2023-05-05T15:12:51.215Z,101569.48
2023-05-05T15:15:20.784Z,101570.40
2023-05-05T15:17:51.968Z,101568.57
2023-05-05T15:20:23.151Z,101567.79
2023-05-05T15:22:55.317Z,101568.35
2023-05-05T15:25:25.145Z,101567.79
2023-05-05T15:27:55.155Z,101568.38
2023-05-05T15:30:25.471Z,101566.39
2023-05-05T15:32:55.305Z,101566.62
2023-05-05T15:35:27.821Z,101557.55
2023-05-05T15:37:57.263Z,101555.99
2023-05-05T15:40:27.004Z,101554.50
2023-05-05T15:42:57.715Z,101552.58
2023-05-05T15:45:27.285Z,101552.41
2023-05-05T15:47:58.893Z,101555.06
2023-05-05T15:50:28.369Z,101551.26
2023-05-05T15:52:57.982Z,101554.68
2023-05-05T15:55:28.043Z,101552.41
2023-05-05T15:57:58.701Z,101548.83
2023-05-05T16:00:28.350Z,101547.63
2023-05-05T16:03:01.990Z,101546.90
2023-05-05T16:05:31.549Z,101546.98
2023-05-05T16:08:00.990Z,101548.63
2023-05-05T16:10:32.008Z,101545.53
2023-05-05T16:13:02.637Z,101545.95
2023-05-05T16:15:32.251Z,101544.48
2023-05-05T16:18:03.084Z,101545.98
2023-05-05T16:20:33.072Z,101550.02
2023-05-05T16:23:03.368Z,101549.38
2023-05-05T16:25:32.815Z,101546.45
2023-05-05T16:28:02.251Z,101543.64
2023-05-05T16:30:32.899Z,101546.93
2023-05-05T16:33:02.611Z,101544.55
2023-05-05T16:35:32.094Z,101545.84
2023-05-05T16:38:01.814Z,101548.64
2023-05-05T16:40:31.374Z,101548.85
2023-05-05T16:43:01.184Z,101548.75
2023-05-05T16:45:30.679Z,101548.81
2023-05-05T16:48:00.373Z,101552.36
2023-05-05T16:50:29.909Z,101557.20
2023-05-05T16:52:59.415Z,101559.09
2023-05-05T16:55:28.790Z,101554.42
2023-05-05T16:57:58.295Z,101556.20
2023-05-05T17:00:28.177Z,101563.58
2023-05-05T17:02:58.992Z,101568.62
2023-05-05T17:05:29.604Z,101572.80
2023-05-05T17:08:03.309Z,101575.83
2023-05-05T17:10:32.593Z,101573.15
2023-05-05T17:13:02.189Z,101575.47
2023-05-05T17:15:31.805Z,101574.91
2023-05-05T17:18:01.266Z,101572.19
2023-05-05T17:20:32.114Z,101574.53
2023-05-05T17:23:05.341Z,101572.67
2023-05-05T17:25:36.059Z,101567.33
2023-05-05T17:28:05.712Z,101573.09
2023-05-05T17:30:35.230Z,101571.00
2023-05-05T17:33:04.761Z,101573.59
2023-05-05T17:35:34.280Z,101575.98
2023-05-05T17:38:03.668Z,101579.53
2023-05-05T17:40:33.060Z,101581.54
2023-05-05T17:43:02.468Z,101583.03
2023-05-05T17:45:31.932Z,101591.41
2023-05-05T17:48:01.311Z,101589.61
2023-05-05T17:50:30.853Z,101585.37
2023-05-05T17:53:00.878Z,101591.45
2023-05-05T17:55:30.188Z,101595.99
2023-05-05T17:57:59.772Z,101598.46
2023-05-05T18:00:29.167Z,101601.25
2023-05-05T18:02:58.584Z,101598.39
2023-05-05T18:05:28.029Z,101599.21
2023-05-05T18:07:57.389Z,101604.27
2023-05-05T18:10:26.704Z,101611.79
2023-05-05T18:12:56.399Z,101610.02
2023-05-05T18:15:26.637Z,101613.62
2023-05-05T18:17:56.425Z,101618.88
2023-05-05T18:20:28.180Z,101616.91
2023-05-05T18:22:59.598Z,101618.22
2023-05-05T18:25:29.405Z,101623.08
2023-05-05T18:27:58.878Z,101622.04
2023-05-05T18:30:28.826Z,101623.63
2023-05-05T18:32:58.215Z,101622.07
2023-05-05T18:35:28.936Z,101624.79
2023-05-05T18:37:58.330Z,101626.71
2023-05-05T18:40:27.942Z,101626.73
2023-05-05T18:42:57.702Z,101628.45
2023-05-05T18:45:30.158Z,101631.72
2023-05-05T18:47:59.934Z,101633.47
2023-05-05T18:50:29.488Z,101633.38
2023-05-05T18:52:58.888Z,101638.32
2023-05-05T18:55:28.304Z,101641.27
2023-05-05T18:57:58.459Z,101635.25
2023-05-05T19:00:29.002Z,101636.77
2023-05-05T19:02:58.754Z,101634.35
2023-05-05T19:05:28.842Z,101634.64
2023-05-05T19:07:58.381Z,101635.80
2023-05-05T19:10:27.904Z,101635.48
2023-05-05T19:12:57.836Z,101633.71
2023-05-05T19:15:27.691Z,101637.69
2023-05-05T19:18:06.994Z,101630.81
2023-05-05T19:20:38.837Z,101632.47
2023-05-05T19:23:11.892Z,101636.27
2023-05-05T19:25:41.589Z,101633.76
2023-05-05T19:28:12.212Z,101632.86
2023-05-05T19:30:42.064Z,101635.69
2023-05-05T19:33:11.624Z,101633.27
2023-05-05T19:35:41.281Z,101637.39
2023-05-05T19:38:10.981Z,101632.17
2023-05-05T19:40:41.675Z,101633.67
2023-05-05T19:43:11.116Z,101632.95
2023-05-05T19:45:40.659Z,101631.36
2023-05-05T19:48:10.127Z,101625.94
2023-05-05T19:50:39.547Z,101628.27
2023-05-05T19:53:10.762Z,101631.70
2023-05-05T19:55:40.297Z,101634.23
2023-05-05T19:58:11.095Z,101632.90
2023-05-05T20:00:40.641Z,101632.08
2023-05-05T20:03:10.142Z,101631.77
2023-05-05T20:05:39.753Z,101633.24
2023-05-05T20:08:11.602Z,101635.96
2023-05-05T20:10:41.187Z,101635.39
2023-05-05T20:13:12.109Z,101636.24
2023-05-05T20:15:41.809Z,101636.95
2023-05-05T20:18:11.144Z,101642.95
2023-05-05T20:20:40.789Z,101651.32
2023-05-05T20:23:14.759Z,101649.00
2023-05-05T20:25:44.083Z,101645.02
2023-05-05T20:28:13.401Z,101645.03
2023-05-05T20:30:42.672Z,101644.88
2023-05-05T20:33:12.128Z,101648.20
2023-05-05T20:35:41.666Z,101638.73
2023-05-05T20:38:11.356Z,101634.45
2023-05-05T20:40:41.766Z,101637.67
2023-05-05T20:43:11.347Z,101646.37
2023-05-05T20:45:41.346Z,101642.39
2023-05-05T20:48:11.620Z,101646.55
2023-05-05T20:50:42.055Z,101645.15
2023-05-05T20:53:16.252Z,101640.94
2023-05-05T20:55:50.012Z,101635.39
2023-05-05T20:58:19.107Z,101639.42
2023-05-05T21:00:48.774Z,101641.63
2023-05-05T21:03:18.141Z,101641.46
2023-05-05T21:05:47.784Z,101636.88
2023-05-05T21:08:17.388Z,101632.95
2023-05-05T21:10:46.799Z,101630.09
2023-05-05T21:13:16.311Z,101632.70
2023-05-05T21:15:45.918Z,101631.84
2023-05-05T21:18:15.310Z,101633.37
2023-05-05T21:20:44.578Z,101626.61
2023-05-05T21:23:13.877Z,101627.35
2023-05-05T21:25:43.345Z,101628.63
2023-05-05T21:28:12.618Z,101629.45
2023-05-05T21:30:42.157Z,101631.95
2023-05-05T21:33:11.501Z,101624.92
2023-05-05T21:35:40.998Z,101625.48
2023-05-05T21:38:10.702Z,101626.52
2023-05-05T21:40:40.149Z,101626.41
2023-05-05T21:43:09.502Z,101626.87
2023-05-05T21:45:39.389Z,101627.77
2023-05-05T21:48:09.400Z,101624.35
2023-05-05T21:50:38.863Z,101623.25
2023-05-05T21:53:08.120Z,101621.17
2023-05-05T21:55:37.400Z,101622.41
2023-05-05T21:58:06.607Z,101619.77
2023-05-05T22:00:35.990Z,101617.13
2023-05-05T22:03:05.585Z,101616.82
2023-05-05T22:05:35.254Z,101615.05
2023-05-05T22:08:04.985Z,101611.79
2023-05-05T22:10:34.416Z,101613.73
2023-05-05T22:13:04.515Z,101614.63
2023-05-05T22:15:45.364Z,101614.52
2023-05-05T22:18:16.221Z,101614.89
2023-05-05T22:20:46.986Z,101613.42
2023-05-05T22:23:16.632Z,101608.00
2023-05-05T22:25:46.906Z,101605.86
2023-05-05T22:28:16.375Z,101606.51
2023-05-05T22:30:45.678Z,101601.66
2023-05-05T22:33:15.886Z,101596.63
2023-05-05T22:35:45.220Z,101591.80
2023-05-05T22:38:15.308Z,101588.66
2023-05-05T22:40:47.436Z,101588.80
2023-05-05T22:43:17.088Z,101583.52
2023-05-05T22:45:46.716Z,101585.10
2023-05-05T22:48:17.184Z,101582.07
2023-05-05T22:50:46.533Z,101577.42
2023-05-05T22:53:15.766Z,101578.28
2023-05-05T22:55:45.396Z,101573.02
2023-05-05T22:58:15.027Z,101571.71
2023-05-05T23:00:44.400Z,101573.30
2023-05-05T23:03:14.601Z,101570.64
2023-05-05T23:05:46.856Z,101570.05
2023-05-05T23:08:18.665Z,101569.79
2023-05-05T23:10:48.099Z,101566.27
2023-05-05T23:13:17.748Z,101568.67
2023-05-05T23:15:47.349Z,101566.52
2023-05-05T23:18:16.824Z,101568.95
2023-05-05T23:20:46.359Z,101568.58
2023-05-05T23:23:15.812Z,101567.31
2023-05-05T23:25:45.417Z,101564.53
2023-05-05T23:28:14.672Z,101566.39
2023-05-05T23:30:44.016Z,101569.98
2023-05-05T23:33:14.065Z,101572.76
2023-05-05T23:35:43.502Z,101576.04
2023-05-05T23:38:12.832Z,101576.45
2023-05-05T23:40:42.243Z,101574.83
2023-05-05T23:43:12.161Z,101573.91
2023-05-05T23:45:41.722Z,101572.27
2023-05-05T23:48:13.373Z,101572.00
2023-05-05T23:50:43.167Z,101568.42
2023-05-05T23:53:16.193Z,101567.81
2023-05-05T23:55:45.690Z,101565.38
2023-05-05T23:58:14.937Z,101565.78
